sensor_id;sensor_type;location;lat;lon;timestamp;temperature;humidity
5806;DHT22;2929;50.810;8.342;2022-10-16T00:00:41;10.90;99.90
5806;DHT22;2929;50.810;8.342;2022-10-16T00:03:10;10.90;99.90
5806;DHT22;2929;50.810;8.342;2022-10-16T00:05:41;10.90;99.90
5806;DHT22;2929;50.810;8.342;2022-10-16T00:08:10;10.90;99.90
5806;DHT22;2929;50.810;8.342;2022-10-16T00:10:38;10.90;99.90
5806;DHT22;2929;50.810;8.342;2022-10-16T00:13:06;10.90;99.90
5806;DHT22;2929;50.810;8.342;2022-10-16T00:15:34;10.90;99.90
5806;DHT22;2929;50.810;8.342;2022-10-16T00:18:03;10.90;99.90
5806;DHT22;2929;50.810;8.342;2022-10-16T00:20:33;10.90;99.90
5806;DHT22;2929;50.810;8.342;2022-10-16T00:23:03;10.80;99.90
5806;DHT22;2929;50.810;8.342;2022-10-16T00:25:30;10.70;99.90
5806;DHT22;2929;50.810;8.342;2022-10-16T00:27:59;10.70;99.90
5806;DHT22;2929;50.810;8.342;2022-10-16T00:30:26;10.80;99.90
5806;DHT22;2929;50.810;8.342;2022-10-16T00:32:54;10.80;99.90
5806;DHT22;2929;50.810;8.342;2022-10-16T00:35:21;10.80;99.90
5806;DHT22;2929;50.810;8.342;2022-10-16T00:37:50;10.90;99.90
5806;DHT22;2929;50.810;8.342;2022-10-16T00:40:17;10.90;99.90
5806;DHT22;2929;50.810;8.342;2022-10-16T00:42:44;10.90;99.90
5806;DHT22;2929;50.810;8.342;2022-10-16T00:45:11;10.90;99.90
5806;DHT22;2929;50.810;8.342;2022-10-16T00:47:40;10.90;99.90
5806;DHT22;2929;50.810;8.342;2022-10-16T00:50:16;11.00;99.90
5806;DHT22;2929;50.810;8.342;2022-10-16T00:52:47;11.00;99.90
5806;DHT22;2929;50.810;8.342;2022-10-16T00:55:16;11.00;99.90
5806;DHT22;2929;50.810;8.342;2022-10-16T00:57:44;11.00;99.90
5806;DHT22;2929;50.810;8.342;2022-10-16T01:00:19;10.90;99.90
5806;DHT22;2929;50.810;8.342;2022-10-16T01:02:52;11.00;99.90
5806;DHT22;2929;50.810;8.342;2022-10-16T01:05:21;11.00;99.90
5806;DHT22;2929;50.810;8.342;2022-10-16T01:07:56;10.90;99.90
5806;DHT22;2929;50.810;8.342;2022-10-16T01:10:31;10.80;99.90
5806;DHT22;2929;50.810;8.342;2022-10-16T01:13:05;10.80;99.90
5806;DHT22;2929;50.810;8.342;2022-10-16T01:15:35;10.70;99.90
5806;DHT22;2929;50.810;8.342;2022-10-16T01:18:09;10.70;99.90
5806;DHT22;2929;50.810;8.342;2022-10-16T01:20:42;10.60;99.90
5806;DHT22;2929;50.810;8.342;2022-10-16T01:23:21;10.70;99.90
5806;DHT22;2929;50.810;8.342;2022-10-16T01:26:04;10.70;99.90
5806;DHT22;2929;50.810;8.342;2022-10-16T01:28:41;10.60;99.90
5806;DHT22;2929;50.810;8.342;2022-10-16T01:31:10;10.70;99.90
5806;DHT22;2929;50.810;8.342;2022-10-16T01:33:41;10.70;99.90
5806;DHT22;2929;50.810;8.342;2022-10-16T01:36:13;10.70;99.90
5806;DHT22;2929;50.810;8.342;2022-10-16T01:38:43;10.80;99.90
5806;DHT22;2929;50.810;8.342;2022-10-16T01:41:15;10.80;99.90
5806;DHT22;2929;50.810;8.342;2022-10-16T01:43:48;10.80;99.90
5806;DHT22;2929;50.810;8.342;2022-10-16T01:46:18;10.80;99.90
5806;DHT22;2929;50.810;8.342;2022-10-16T01:48:47;10.80;99.90
5806;DHT22;2929;50.810;8.342;2022-10-16T01:51:15;10.80;99.90
5806;DHT22;2929;50.810;8.342;2022-10-16T01:53:47;10.80;99.90
5806;DHT22;2929;50.810;8.342;2022-10-16T01:56:16;10.70;99.90
5806;DHT22;2929;50.810;8.342;2022-10-16T01:58:49;10.80;99.90
5806;DHT22;2929;50.810;8.342;2022-10-16T02:01:19;10.70;99.90
5806;DHT22;2929;50.810;8.342;2022-10-16T02:03:51;10.70;99.90
5806;DHT22;2929;50.810;8.342;2022-10-16T02:06:20;10.70;99.90
5806;DHT22;2929;50.810;8.342;2022-10-16T02:08:47;10.60;99.90
5806;DHT22;2929;50.810;8.342;2022-10-16T02:11:14;10.60;99.90
5806;DHT22;2929;50.810;8.342;2022-10-16T02:13:46;10.60;99.90
5806;DHT22;2929;50.810;8.342;2022-10-16T02:16:15;10.50;99.90
5806;DHT22;2929;50.810;8.342;2022-10-16T02:18:42;10.50;99.90
5806;DHT22;2929;50.810;8.342;2022-10-16T02:21:15;10.40;99.90
5806;DHT22;2929;50.810;8.342;2022-10-16T02:23:50;10.40;99.90
5806;DHT22;2929;50.810;8.342;2022-10-16T02:26:24;10.40;99.90
5806;DHT22;2929;50.810;8.342;2022-10-16T02:28:59;10.40;99.90
5806;DHT22;2929;50.810;8.342;2022-10-16T02:31:28;10.50;99.90
5806;DHT22;2929;50.810;8.342;2022-10-16T02:34:03;10.50;99.90
5806;DHT22;2929;50.810;8.342;2022-10-16T02:36:32;10.60;99.90
5806;DHT22;2929;50.810;8.342;2022-10-16T02:39:00;10.60;99.90
5806;DHT22;2929;50.810;8.342;2022-10-16T02:41:30;10.50;99.90
5806;DHT22;2929;50.810;8.342;2022-10-16T02:43:58;10.50;99.90
5806;DHT22;2929;50.810;8.342;2022-10-16T02:46:25;10.50;99.90
5806;DHT22;2929;50.810;8.342;2022-10-16T02:48:52;10.60;99.90
5806;DHT22;2929;50.810;8.342;2022-10-16T02:51:19;10.60;99.90
5806;DHT22;2929;50.810;8.342;2022-10-16T02:53:46;10.70;99.90
5806;DHT22;2929;50.810;8.342;2022-10-16T02:56:13;10.60;99.90
5806;DHT22;2929;50.810;8.342;2022-10-16T02:58:40;10.60;99.90
5806;DHT22;2929;50.810;8.342;2022-10-16T03:01:08;10.60;99.90
5806;DHT22;2929;50.810;8.342;2022-10-16T03:03:37;10.60;99.90
5806;DHT22;2929;50.810;8.342;2022-10-16T03:06:05;10.60;99.90
5806;DHT22;2929;50.810;8.342;2022-10-16T03:08:32;10.50;99.90
5806;DHT22;2929;50.810;8.342;2022-10-16T03:10:59;10.50;99.90
5806;DHT22;2929;50.810;8.342;2022-10-16T03:13:28;10.50;99.90
5806;DHT22;2929;50.810;8.342;2022-10-16T03:15:55;10.50;99.90
5806;DHT22;2929;50.810;8.342;2022-10-16T03:18:23;10.50;99.90
5806;DHT22;2929;50.810;8.342;2022-10-16T03:20:50;10.50;99.90
5806;DHT22;2929;50.810;8.342;2022-10-16T03:23:17;10.50;99.90
5806;DHT22;2929;50.810;8.342;2022-10-16T03:25:44;10.50;99.90
5806;DHT22;2929;50.810;8.342;2022-10-16T03:28:11;10.40;99.90
5806;DHT22;2929;50.810;8.342;2022-10-16T03:30:38;10.50;99.90
5806;DHT22;2929;50.810;8.342;2022-10-16T03:33:06;10.50;99.90
5806;DHT22;2929;50.810;8.342;2022-10-16T03:35:34;10.50;99.90
5806;DHT22;2929;50.810;8.342;2022-10-16T03:38:01;10.50;99.90
5806;DHT22;2929;50.810;8.342;2022-10-16T03:40:29;10.50;99.90
5806;DHT22;2929;50.810;8.342;2022-10-16T03:42:57;10.50;99.90
5806;DHT22;2929;50.810;8.342;2022-10-16T03:45:24;10.50;99.90
5806;DHT22;2929;50.810;8.342;2022-10-16T03:47:51;10.50;99.90
5806;DHT22;2929;50.810;8.342;2022-10-16T03:50:18;10.50;99.90
5806;DHT22;2929;50.810;8.342;2022-10-16T03:52:47;10.40;99.90
5806;DHT22;2929;50.810;8.342;2022-10-16T03:55:14;10.50;99.90
5806;DHT22;2929;50.810;8.342;2022-10-16T03:57:41;10.40;99.90
5806;DHT22;2929;50.810;8.342;2022-10-16T04:00:09;10.40;99.90
5806;DHT22;2929;50.810;8.342;2022-10-16T04:02:40;10.50;99.90
5806;DHT22;2929;50.810;8.342;2022-10-16T04:05:07;10.50;99.90
5806;DHT22;2929;50.810;8.342;2022-10-16T04:07:34;10.50;99.90
5806;DHT22;2929;50.810;8.342;2022-10-16T04:10:03;10.50;99.90
5806;DHT22;2929;50.810;8.342;2022-10-16T04:12:30;10.50;99.90
5806;DHT22;2929;50.810;8.342;2022-10-16T04:14:57;10.50;99.90
5806;DHT22;2929;50.810;8.342;2022-10-16T04:17:24;10.50;99.90
5806;DHT22;2929;50.810;8.342;2022-10-16T04:19:51;10.50;99.90
5806;DHT22;2929;50.810;8.342;2022-10-16T04:22:18;10.40;99.90
5806;DHT22;2929;50.810;8.342;2022-10-16T04:24:45;10.50;99.90
5806;DHT22;2929;50.810;8.342;2022-10-16T04:27:14;10.50;99.90
5806;DHT22;2929;50.810;8.342;2022-10-16T04:29:41;10.40;99.90
5806;DHT22;2929;50.810;8.342;2022-10-16T04:32:08;10.50;99.90
5806;DHT22;2929;50.810;8.342;2022-10-16T04:34:35;10.50;99.90
5806;DHT22;2929;50.810;8.342;2022-10-16T04:37:03;10.60;99.90
5806;DHT22;2929;50.810;8.342;2022-10-16T04:39:30;10.60;99.90
5806;DHT22;2929;50.810;8.342;2022-10-16T04:41:57;10.70;99.90
5806;DHT22;2929;50.810;8.342;2022-10-16T04:44:26;10.70;99.90
5806;DHT22;2929;50.810;8.342;2022-10-16T04:46:53;10.80;99.90
5806;DHT22;2929;50.810;8.342;2022-10-16T04:49:20;10.80;99.90
5806;DHT22;2929;50.810;8.342;2022-10-16T04:51:47;10.80;99.90
5806;DHT22;2929;50.810;8.342;2022-10-16T04:54:14;11.00;99.90
5806;DHT22;2929;50.810;8.342;2022-10-16T04:56:41;11.00;99.90
5806;DHT22;2929;50.810;8.342;2022-10-16T04:59:12;10.90;99.90
5806;DHT22;2929;50.810;8.342;2022-10-16T05:01:41;10.90;99.90
5806;DHT22;2929;50.810;8.342;2022-10-16T05:04:08;10.90;99.90
5806;DHT22;2929;50.810;8.342;2022-10-16T05:06:36;10.90;99.90
5806;DHT22;2929;50.810;8.342;2022-10-16T05:09:04;10.90;99.90
5806;DHT22;2929;50.810;8.342;2022-10-16T05:11:31;11.00;99.90
5806;DHT22;2929;50.810;8.342;2022-10-16T05:13:58;11.20;99.90
5806;DHT22;2929;50.810;8.342;2022-10-16T05:16:25;11.30;99.90
5806;DHT22;2929;50.810;8.342;2022-10-16T05:18:54;11.40;99.90
5806;DHT22;2929;50.810;8.342;2022-10-16T05:21:22;11.40;99.90
5806;DHT22;2929;50.810;8.342;2022-10-16T05:23:49;11.60;99.90
5806;DHT22;2929;50.810;8.342;2022-10-16T05:26:16;11.70;99.90
5806;DHT22;2929;50.810;8.342;2022-10-16T05:28:43;11.70;99.90
5806;DHT22;2929;50.810;8.342;2022-10-16T05:31:10;11.70;99.90
5806;DHT22;2929;50.810;8.342;2022-10-16T05:33:37;11.70;99.90
5806;DHT22;2929;50.810;8.342;2022-10-16T05:36:08;11.70;99.90
5806;DHT22;2929;50.810;8.342;2022-10-16T05:38:36;11.80;99.90
5806;DHT22;2929;50.810;8.342;2022-10-16T05:41:03;11.80;99.90
5806;DHT22;2929;50.810;8.342;2022-10-16T05:43:31;11.80;99.90
5806;DHT22;2929;50.810;8.342;2022-10-16T05:46:01;11.80;99.90
5806;DHT22;2929;50.810;8.342;2022-10-16T05:48:28;11.80;99.90
5806;DHT22;2929;50.810;8.342;2022-10-16T05:50:59;11.80;99.90
5806;DHT22;2929;50.810;8.342;2022-10-16T05:53:29;11.80;99.90
5806;DHT22;2929;50.810;8.342;2022-10-16T05:55:56;11.70;99.90
5806;DHT22;2929;50.810;8.342;2022-10-16T05:58:28;11.70;99.90
5806;DHT22;2929;50.810;8.342;2022-10-16T06:00:56;11.70;99.90
5806;DHT22;2929;50.810;8.342;2022-10-16T06:03:24;11.70;99.90
5806;DHT22;2929;50.810;8.342;2022-10-16T06:05:51;11.70;99.90
5806;DHT22;2929;50.810;8.342;2022-10-16T06:08:18;11.70;99.90
5806;DHT22;2929;50.810;8.342;2022-10-16T06:10:47;11.60;99.90
5806;DHT22;2929;50.810;8.342;2022-10-16T06:13:15;11.70;99.90
5806;DHT22;2929;50.810;8.342;2022-10-16T06:15:42;11.70;99.90
5806;DHT22;2929;50.810;8.342;2022-10-16T06:18:09;11.70;99.90
5806;DHT22;2929;50.810;8.342;2022-10-16T06:20:37;11.60;99.90
5806;DHT22;2929;50.810;8.342;2022-10-16T06:23:04;11.60;99.90
5806;DHT22;2929;50.810;8.342;2022-10-16T06:25:31;11.60;99.90
5806;DHT22;2929;50.810;8.342;2022-10-16T06:28:00;11.60;99.90
5806;DHT22;2929;50.810;8.342;2022-10-16T06:30:26;11.60;99.90
5806;DHT22;2929;50.810;8.342;2022-10-16T06:32:54;11.60;99.90
5806;DHT22;2929;50.810;8.342;2022-10-16T06:35:21;11.70;99.90
5806;DHT22;2929;50.810;8.342;2022-10-16T06:37:48;11.90;99.90
5806;DHT22;2929;50.810;8.342;2022-10-16T06:40:15;11.80;99.90
5806;DHT22;2929;50.810;8.342;2022-10-16T06:42:42;11.80;99.90
5806;DHT22;2929;50.810;8.342;2022-10-16T06:45:11;11.90;99.90
5806;DHT22;2929;50.810;8.342;2022-10-16T06:47:38;11.90;99.90
5806;DHT22;2929;50.810;8.342;2022-10-16T06:50:06;12.00;99.90
5806;DHT22;2929;50.810;8.342;2022-10-16T06:52:33;12.00;99.90
5806;DHT22;2929;50.810;8.342;2022-10-16T06:55:01;12.10;99.90
5806;DHT22;2929;50.810;8.342;2022-10-16T06:57:28;12.10;99.90
5806;DHT22;2929;50.810;8.342;2022-10-16T06:59:56;12.10;99.90
5806;DHT22;2929;50.810;8.342;2022-10-16T07:02:24;12.10;99.90
5806;DHT22;2929;50.810;8.342;2022-10-16T07:04:51;12.20;99.90
5806;DHT22;2929;50.810;8.342;2022-10-16T07:07:18;12.20;99.90
5806;DHT22;2929;50.810;8.342;2022-10-16T07:09:45;12.20;99.90
5806;DHT22;2929;50.810;8.342;2022-10-16T07:12:12;12.20;99.90
5806;DHT22;2929;50.810;8.342;2022-10-16T07:14:39;12.40;99.90
5806;DHT22;2929;50.810;8.342;2022-10-16T07:17:06;12.40;99.90
5806;DHT22;2929;50.810;8.342;2022-10-16T07:19:35;12.50;99.90
5806;DHT22;2929;50.810;8.342;2022-10-16T07:22:02;12.50;99.90
5806;DHT22;2929;50.810;8.342;2022-10-16T07:24:30;12.60;99.90
5806;DHT22;2929;50.810;8.342;2022-10-16T07:26:57;12.60;99.90
5806;DHT22;2929;50.810;8.342;2022-10-16T07:29:24;12.60;99.90
5806;DHT22;2929;50.810;8.342;2022-10-16T07:31:51;12.70;99.90
5806;DHT22;2929;50.810;8.342;2022-10-16T07:34:19;12.60;99.90
5806;DHT22;2929;50.810;8.342;2022-10-16T07:36:49;12.70;99.90
5806;DHT22;2929;50.810;8.342;2022-10-16T07:39:16;12.70;99.90
5806;DHT22;2929;50.810;8.342;2022-10-16T07:41:43;12.70;99.90
5806;DHT22;2929;50.810;8.342;2022-10-16T07:44:10;12.80;99.90
5806;DHT22;2929;50.810;8.342;2022-10-16T07:46:37;12.70;99.90
5806;DHT22;2929;50.810;8.342;2022-10-16T07:49:04;12.80;99.90
5806;DHT22;2929;50.810;8.342;2022-10-16T07:51:32;12.80;99.90
5806;DHT22;2929;50.810;8.342;2022-10-16T07:54:00;12.80;99.90
5806;DHT22;2929;50.810;8.342;2022-10-16T07:56:27;12.80;99.90
5806;DHT22;2929;50.810;8.342;2022-10-16T07:58:54;12.80;99.90
5806;DHT22;2929;50.810;8.342;2022-10-16T08:01:22;12.90;99.90
5806;DHT22;2929;50.810;8.342;2022-10-16T08:03:49;12.90;99.90
5806;DHT22;2929;50.810;8.342;2022-10-16T08:06:19;12.90;99.90
5806;DHT22;2929;50.810;8.342;2022-10-16T08:08:46;13.00;99.90
5806;DHT22;2929;50.810;8.342;2022-10-16T08:11:15;13.00;99.90
5806;DHT22;2929;50.810;8.342;2022-10-16T08:13:42;13.10;99.90
5806;DHT22;2929;50.810;8.342;2022-10-16T08:16:09;13.10;99.90
5806;DHT22;2929;50.810;8.342;2022-10-16T08:18:38;13.20;99.90
5806;DHT22;2929;50.810;8.342;2022-10-16T08:21:06;13.20;99.90
5806;DHT22;2929;50.810;8.342;2022-10-16T08:23:34;13.30;99.90
5806;DHT22;2929;50.810;8.342;2022-10-16T08:26:06;13.30;99.90
5806;DHT22;2929;50.810;8.342;2022-10-16T08:28:36;13.40;99.90
5806;DHT22;2929;50.810;8.342;2022-10-16T08:31:08;13.50;99.90
5806;DHT22;2929;50.810;8.342;2022-10-16T08:33:35;13.40;99.90
5806;DHT22;2929;50.810;8.342;2022-10-16T08:36:03;13.50;99.90
5806;DHT22;2929;50.810;8.342;2022-10-16T08:38:31;13.60;99.90
5806;DHT22;2929;50.810;8.342;2022-10-16T08:41:09;13.60;99.90
5806;DHT22;2929;50.810;8.342;2022-10-16T08:44:02;13.80;99.90
5806;DHT22;2929;50.810;8.342;2022-10-16T08:46:40;13.90;99.90
5806;DHT22;2929;50.810;8.342;2022-10-16T08:49:12;14.00;99.90
5806;DHT22;2929;50.810;8.342;2022-10-16T08:51:40;14.10;99.90
5806;DHT22;2929;50.810;8.342;2022-10-16T08:54:21;14.10;99.90
5806;DHT22;2929;50.810;8.342;2022-10-16T08:56:50;14.10;99.90
5806;DHT22;2929;50.810;8.342;2022-10-16T08:59:19;14.10;99.90
5806;DHT22;2929;50.810;8.342;2022-10-16T09:01:49;14.10;99.90
5806;DHT22;2929;50.810;8.342;2022-10-16T09:04:44;14.10;99.90
5806;DHT22;2929;50.810;8.342;2022-10-16T09:07:18;14.00;99.90
5806;DHT22;2929;50.810;8.342;2022-10-16T09:10:03;14.10;99.90
5806;DHT22;2929;50.810;8.342;2022-10-16T09:12:38;14.20;99.90
5806;DHT22;2929;50.810;8.342;2022-10-16T09:15:20;14.30;99.90
5806;DHT22;2929;50.810;8.342;2022-10-16T09:17:54;14.50;99.90
5806;DHT22;2929;50.810;8.342;2022-10-16T09:20:30;14.60;99.90
5806;DHT22;2929;50.810;8.342;2022-10-16T09:23:13;14.70;99.90
5806;DHT22;2929;50.810;8.342;2022-10-16T09:25:43;14.80;99.90
5806;DHT22;2929;50.810;8.342;2022-10-16T09:28:11;15.10;99.90
5806;DHT22;2929;50.810;8.342;2022-10-16T09:30:39;15.30;99.90
5806;DHT22;2929;50.810;8.342;2022-10-16T09:33:08;15.50;99.90
5806;DHT22;2929;50.810;8.342;2022-10-16T09:35:38;15.40;99.90
5806;DHT22;2929;50.810;8.342;2022-10-16T09:38:07;15.30;99.90
5806;DHT22;2929;50.810;8.342;2022-10-16T09:40:37;15.30;99.90
5806;DHT22;2929;50.810;8.342;2022-10-16T09:43:17;15.30;99.90
5806;DHT22;2929;50.810;8.342;2022-10-16T09:45:55;15.40;99.90
5806;DHT22;2929;50.810;8.342;2022-10-16T09:48:26;15.50;99.90
5806;DHT22;2929;50.810;8.342;2022-10-16T09:50:58;15.60;99.90
5806;DHT22;2929;50.810;8.342;2022-10-16T09:53:37;15.60;99.90
5806;DHT22;2929;50.810;8.342;2022-10-16T09:56:05;15.60;99.90
5806;DHT22;2929;50.810;8.342;2022-10-16T09:58:33;15.50;99.90
5806;DHT22;2929;50.810;8.342;2022-10-16T10:01:01;15.40;99.90
5806;DHT22;2929;50.810;8.342;2022-10-16T10:03:35;15.30;99.90
5806;DHT22;2929;50.810;8.342;2022-10-16T10:06:14;15.30;99.90
5806;DHT22;2929;50.810;8.342;2022-10-16T10:08:53;15.30;99.90
5806;DHT22;2929;50.810;8.342;2022-10-16T10:11:45;15.30;99.90
5806;DHT22;2929;50.810;8.342;2022-10-16T10:14:28;15.40;99.90
5806;DHT22;2929;50.810;8.342;2022-10-16T10:17:20;15.50;99.90
5806;DHT22;2929;50.810;8.342;2022-10-16T10:19:50;15.60;99.90
5806;DHT22;2929;50.810;8.342;2022-10-16T10:22:27;15.60;99.90
5806;DHT22;2929;50.810;8.342;2022-10-16T10:25:14;15.70;99.90
5806;DHT22;2929;50.810;8.342;2022-10-16T10:27:56;15.70;99.90
5806;DHT22;2929;50.810;8.342;2022-10-16T10:30:32;15.70;99.90
5806;DHT22;2929;50.810;8.342;2022-10-16T10:33:11;15.80;99.90
5806;DHT22;2929;50.810;8.342;2022-10-16T10:35:45;16.10;99.90
5806;DHT22;2929;50.810;8.342;2022-10-16T10:38:29;16.40;99.90
5806;DHT22;2929;50.810;8.342;2022-10-16T10:41:07;16.60;99.90
5806;DHT22;2929;50.810;8.342;2022-10-16T10:43:47;16.60;99.90
5806;DHT22;2929;50.810;8.342;2022-10-16T10:46:22;16.60;99.90
5806;DHT22;2929;50.810;8.342;2022-10-16T10:49:09;16.50;99.90
5806;DHT22;2929;50.810;8.342;2022-10-16T10:51:49;16.60;99.90
5806;DHT22;2929;50.810;8.342;2022-10-16T10:54:24;16.40;99.90
5806;DHT22;2929;50.810;8.342;2022-10-16T10:56:58;16.50;99.90
5806;DHT22;2929;50.810;8.342;2022-10-16T10:59:44;16.60;99.90
5806;DHT22;2929;50.810;8.342;2022-10-16T11:02:19;16.50;99.90
5806;DHT22;2929;50.810;8.342;2022-10-16T11:05:28;16.50;99.90
5806;DHT22;2929;50.810;8.342;2022-10-16T11:08:00;16.50;99.90
5806;DHT22;2929;50.810;8.342;2022-10-16T11:10:32;16.50;99.90
5806;DHT22;2929;50.810;8.342;2022-10-16T11:13:20;16.60;99.90
5806;DHT22;2929;50.810;8.342;2022-10-16T11:15:51;16.80;99.90
5806;DHT22;2929;50.810;8.342;2022-10-16T11:18:24;17.20;99.90
5806;DHT22;2929;50.810;8.342;2022-10-16T11:20:59;17.60;99.90
5806;DHT22;2929;50.810;8.342;2022-10-16T11:23:29;18.00;99.90
5806;DHT22;2929;50.810;8.342;2022-10-16T11:26:01;18.40;99.90
5806;DHT22;2929;50.810;8.342;2022-10-16T11:28:32;18.70;99.90
5806;DHT22;2929;50.810;8.342;2022-10-16T11:31:03;19.00;99.90
5806;DHT22;2929;50.810;8.342;2022-10-16T11:33:37;19.20;99.90
5806;DHT22;2929;50.810;8.342;2022-10-16T11:36:12;19.70;99.90
5806;DHT22;2929;50.810;8.342;2022-10-16T11:38:46;20.20;99.90
5806;DHT22;2929;50.810;8.342;2022-10-16T11:41:22;20.30;99.90
5806;DHT22;2929;50.810;8.342;2022-10-16T11:43:58;20.40;99.90
5806;DHT22;2929;50.810;8.342;2022-10-16T11:46:31;20.70;99.90
5806;DHT22;2929;50.810;8.342;2022-10-16T11:49:06;21.00;99.90
5806;DHT22;2929;50.810;8.342;2022-10-16T11:51:39;21.20;99.90
5806;DHT22;2929;50.810;8.342;2022-10-16T11:54:15;21.40;99.90
5806;DHT22;2929;50.810;8.342;2022-10-16T11:56:48;21.20;99.90
5806;DHT22;2929;50.810;8.342;2022-10-16T11:59:22;21.30;99.90
5806;DHT22;2929;50.810;8.342;2022-10-16T12:01:55;21.40;99.90
5806;DHT22;2929;50.810;8.342;2022-10-16T12:04:30;21.10;99.90
5806;DHT22;2929;50.810;8.342;2022-10-16T12:07:04;21.20;99.90
5806;DHT22;2929;50.810;8.342;2022-10-16T12:09:35;21.30;99.90
5806;DHT22;2929;50.810;8.342;2022-10-16T12:12:03;21.50;99.90
5806;DHT22;2929;50.810;8.342;2022-10-16T12:14:37;21.70;99.90
5806;DHT22;2929;50.810;8.342;2022-10-16T12:17:24;22.10;99.90
5806;DHT22;2929;50.810;8.342;2022-10-16T12:20:12;22.30;99.90
5806;DHT22;2929;50.810;8.342;2022-10-16T12:22:51;22.80;99.90
5806;DHT22;2929;50.810;8.342;2022-10-16T12:25:22;22.60;99.90
5806;DHT22;2929;50.810;8.342;2022-10-16T12:28:01;22.90;99.90
5806;DHT22;2929;50.810;8.342;2022-10-16T12:30:31;23.30;99.90
5806;DHT22;2929;50.810;8.342;2022-10-16T12:33:00;23.90;98.40
5806;DHT22;2929;50.810;8.342;2022-10-16T12:35:30;23.80;98.80
5806;DHT22;2929;50.810;8.342;2022-10-16T12:38:08;23.70;99.90
5806;DHT22;2929;50.810;8.342;2022-10-16T12:40:42;23.30;98.60
5806;DHT22;2929;50.810;8.342;2022-10-16T12:43:28;22.40;99.90
5806;DHT22;2929;50.810;8.342;2022-10-16T12:46:04;21.40;99.90
5806;DHT22;2929;50.810;8.342;2022-10-16T12:48:31;20.80;99.90
5806;DHT22;2929;50.810;8.342;2022-10-16T12:51:09;20.30;99.90
5806;DHT22;2929;50.810;8.342;2022-10-16T12:53:38;20.00;99.90
5806;DHT22;2929;50.810;8.342;2022-10-16T12:56:12;19.70;99.90
5806;DHT22;2929;50.810;8.342;2022-10-16T12:58:53;19.60;99.90
5806;DHT22;2929;50.810;8.342;2022-10-16T13:01:34;19.60;99.90
5806;DHT22;2929;50.810;8.342;2022-10-16T13:04:22;19.70;99.90
5806;DHT22;2929;50.810;8.342;2022-10-16T13:06:56;20.10;99.90
5806;DHT22;2929;50.810;8.342;2022-10-16T13:09:38;20.70;99.90
5806;DHT22;2929;50.810;8.342;2022-10-16T13:12:19;21.50;99.90
5806;DHT22;2929;50.810;8.342;2022-10-16T13:15:12;22.10;99.90
5806;DHT22;2929;50.810;8.342;2022-10-16T13:17:49;22.40;99.90
5806;DHT22;2929;50.810;8.342;2022-10-16T13:20:22;21.40;99.90
5806;DHT22;2929;50.810;8.342;2022-10-16T13:22:59;21.10;99.90
5806;DHT22;2929;50.810;8.342;2022-10-16T13:25:38;20.70;99.90
5806;DHT22;2929;50.810;8.342;2022-10-16T13:28:08;20.60;99.90
5806;DHT22;2929;50.810;8.342;2022-10-16T13:30:39;20.80;99.90
5806;DHT22;2929;50.810;8.342;2022-10-16T13:33:13;20.80;99.90
5806;DHT22;2929;50.810;8.342;2022-10-16T13:35:48;20.70;99.90
5806;DHT22;2929;50.810;8.342;2022-10-16T13:38:18;21.00;99.90
5806;DHT22;2929;50.810;8.342;2022-10-16T13:40:51;21.60;99.90
5806;DHT22;2929;50.810;8.342;2022-10-16T13:43:20;22.00;99.90
5806;DHT22;2929;50.810;8.342;2022-10-16T13:45:59;22.40;99.90
5806;DHT22;2929;50.810;8.342;2022-10-16T13:48:28;23.20;99.90
5806;DHT22;2929;50.810;8.342;2022-10-16T13:51:06;23.40;99.90
5806;DHT22;2929;50.810;8.342;2022-10-16T13:53:37;23.40;99.90
5806;DHT22;2929;50.810;8.342;2022-10-16T13:56:07;23.60;99.60
5806;DHT22;2929;50.810;8.342;2022-10-16T13:58:34;23.10;99.00
5806;DHT22;2929;50.810;8.342;2022-10-16T14:01:03;22.70;99.90
5806;DHT22;2929;50.810;8.342;2022-10-16T14:03:32;22.80;99.90
5806;DHT22;2929;50.810;8.342;2022-10-16T14:06:03;22.20;99.90
5806;DHT22;2929;50.810;8.342;2022-10-16T14:08:31;21.80;99.90
5806;DHT22;2929;50.810;8.342;2022-10-16T14:11:00;21.30;99.90
5806;DHT22;2929;50.810;8.342;2022-10-16T14:13:32;20.60;99.90
5806;DHT22;2929;50.810;8.342;2022-10-16T14:16:06;20.30;99.90
5806;DHT22;2929;50.810;8.342;2022-10-16T14:18:33;20.00;99.90
5806;DHT22;2929;50.810;8.342;2022-10-16T14:21:05;19.80;99.90
5806;DHT22;2929;50.810;8.342;2022-10-16T14:23:36;19.70;99.90
5806;DHT22;2929;50.810;8.342;2022-10-16T14:26:15;19.60;99.90
5806;DHT22;2929;50.810;8.342;2022-10-16T14:28:46;19.70;99.90
5806;DHT22;2929;50.810;8.342;2022-10-16T14:31:29;20.20;99.90
5806;DHT22;2929;50.810;8.342;2022-10-16T14:33:57;21.00;99.90
5806;DHT22;2929;50.810;8.342;2022-10-16T14:36:25;21.60;99.90
5806;DHT22;2929;50.810;8.342;2022-10-16T14:38:58;22.00;99.90
5806;DHT22;2929;50.810;8.342;2022-10-16T14:41:26;21.80;99.90
5806;DHT22;2929;50.810;8.342;2022-10-16T14:43:56;21.30;99.90
5806;DHT22;2929;50.810;8.342;2022-10-16T14:46:31;20.80;99.90
5806;DHT22;2929;50.810;8.342;2022-10-16T14:49:02;20.30;99.90
5806;DHT22;2929;50.810;8.342;2022-10-16T14:51:30;19.90;99.90
5806;DHT22;2929;50.810;8.342;2022-10-16T14:53:57;19.30;99.90
5806;DHT22;2929;50.810;8.342;2022-10-16T14:56:26;19.00;99.90
5806;DHT22;2929;50.810;8.342;2022-10-16T14:58:55;18.90;99.90
5806;DHT22;2929;50.810;8.342;2022-10-16T15:01:23;18.90;99.90
5806;DHT22;2929;50.810;8.342;2022-10-16T15:03:50;18.90;99.90
5806;DHT22;2929;50.810;8.342;2022-10-16T15:06:19;18.80;99.90
5806;DHT22;2929;50.810;8.342;2022-10-16T15:08:47;18.70;99.90
5806;DHT22;2929;50.810;8.342;2022-10-16T15:11:16;18.60;99.90
5806;DHT22;2929;50.810;8.342;2022-10-16T15:13:44;18.40;99.90
5806;DHT22;2929;50.810;8.342;2022-10-16T15:16:14;18.30;99.90
5806;DHT22;2929;50.810;8.342;2022-10-16T15:18:42;18.30;99.90
5806;DHT22;2929;50.810;8.342;2022-10-16T15:21:20;18.30;99.90
5806;DHT22;2929;50.810;8.342;2022-10-16T15:23:48;18.20;99.90
5806;DHT22;2929;50.810;8.342;2022-10-16T15:26:16;18.10;99.90
5806;DHT22;2929;50.810;8.342;2022-10-16T15:28:43;18.20;99.90
5806;DHT22;2929;50.810;8.342;2022-10-16T15:31:11;18.10;99.90
5806;DHT22;2929;50.810;8.342;2022-10-16T15:33:38;18.10;99.90
5806;DHT22;2929;50.810;8.342;2022-10-16T15:36:06;18.00;99.90
5806;DHT22;2929;50.810;8.342;2022-10-16T15:38:34;17.90;99.90
5806;DHT22;2929;50.810;8.342;2022-10-16T15:41:01;17.90;99.90
5806;DHT22;2929;50.810;8.342;2022-10-16T15:43:28;17.80;99.90
5806;DHT22;2929;50.810;8.342;2022-10-16T15:46:00;17.70;99.90
5806;DHT22;2929;50.810;8.342;2022-10-16T15:48:30;17.70;99.90
5806;DHT22;2929;50.810;8.342;2022-10-16T15:50:57;17.60;99.90
5806;DHT22;2929;50.810;8.342;2022-10-16T15:53:24;17.60;99.90
5806;DHT22;2929;50.810;8.342;2022-10-16T15:55:51;17.60;99.90
5806;DHT22;2929;50.810;8.342;2022-10-16T15:58:18;17.50;99.90
5806;DHT22;2929;50.810;8.342;2022-10-16T16:00:54;17.30;99.90
5806;DHT22;2929;50.810;8.342;2022-10-16T16:03:21;17.20;99.90
5806;DHT22;2929;50.810;8.342;2022-10-16T16:05:50;17.30;99.90
5806;DHT22;2929;50.810;8.342;2022-10-16T16:08:17;17.10;99.90
5806;DHT22;2929;50.810;8.342;2022-10-16T16:10:44;17.10;99.90
5806;DHT22;2929;50.810;8.342;2022-10-16T16:13:11;17.10;99.90
5806;DHT22;2929;50.810;8.342;2022-10-16T16:15:39;17.00;99.90
5806;DHT22;2929;50.810;8.342;2022-10-16T16:18:06;17.00;99.90
5806;DHT22;2929;50.810;8.342;2022-10-16T16:20:35;16.90;99.90
5806;DHT22;2929;50.810;8.342;2022-10-16T16:23:03;16.90;99.90
5806;DHT22;2929;50.810;8.342;2022-10-16T16:25:30;16.80;99.90